sensor_id;sensor_type;location;lat;lon;timestamp;pressure;altitude;pressure_sealevel;temperature
12007;BMP180;6062;47.294;12.182;2023-05-14T00:01:58;80143.00;;;7.00
12007;BMP180;6062;47.294;12.182;2023-05-14T00:04:24;80145.00;;;7.00
12007;BMP180;6062;47.294;12.182;2023-05-14T00:06:50;80137.00;;;7.00
12007;BMP180;6062;47.294;12.182;2023-05-14T00:09:16;80137.00;;;7.00
12007;BMP180;6062;47.294;12.182;2023-05-14T00:11:41;80133.00;;;7.00
12007;BMP180;6062;47.294;12.182;2023-05-14T00:14:07;80139.00;;;7.00
12007;BMP180;6062;47.294;12.182;2023-05-14T00:16:33;80133.00;;;7.00
12007;BMP180;6062;47.294;12.182;2023-05-14T00:18:58;80130.00;;;6.90
12007;BMP180;6062;47.294;12.182;2023-05-14T00:21:24;80126.00;;;6.90
12007;BMP180;6062;47.294;12.182;2023-05-14T00:23:50;80123.00;;;6.90
12007;BMP180;6062;47.294;12.182;2023-05-14T00:26:15;80132.00;;;6.80
12007;BMP180;6062;47.294;12.182;2023-05-14T00:28:41;80131.00;;;6.80
12007;BMP180;6062;47.294;12.182;2023-05-14T00:31:07;80131.00;;;6.70
12007;BMP180;6062;47.294;12.182;2023-05-14T00:33:32;80127.00;;;6.70
12007;BMP180;6062;47.294;12.182;2023-05-14T00:35:58;80121.00;;;6.60
12007;BMP180;6062;47.294;12.182;2023-05-14T00:38:24;80124.00;;;6.60
12007;BMP180;6062;47.294;12.182;2023-05-14T00:40:52;80123.00;;;6.60
12007;BMP180;6062;47.294;12.182;2023-05-14T00:43:21;80116.00;;;6.50
12007;BMP180;6062;47.294;12.182;2023-05-14T00:45:53;80120.00;;;6.50
12007;BMP180;6062;47.294;12.182;2023-05-14T00:48:20;80116.00;;;6.40
12007;BMP180;6062;47.294;12.182;2023-05-14T00:50:47;80121.00;;;6.40
12007;BMP180;6062;47.294;12.182;2023-05-14T00:53:14;80111.00;;;6.40
12007;BMP180;6062;47.294;12.182;2023-05-14T00:55:41;80119.00;;;6.40
12007;BMP180;6062;47.294;12.182;2023-05-14T00:58:10;80114.00;;;6.40
12007;BMP180;6062;47.294;12.182;2023-05-14T01:00:38;80111.00;;;6.30
12007;BMP180;6062;47.294;12.182;2023-05-14T01:03:05;80103.00;;;6.30
12007;BMP180;6062;47.294;12.182;2023-05-14T01:06:08;80098.00;;;6.20
12007;BMP180;6062;47.294;12.182;2023-05-14T01:11:30;80100.00;;;6.20
12007;BMP180;6062;47.294;12.182;2023-05-14T01:16:57;80095.00;;;6.10
12007;BMP180;6062;47.294;12.182;2023-05-14T01:19:38;80097.00;;;6.00
12007;BMP180;6062;47.294;12.182;2023-05-14T01:22:04;80088.00;;;6.00
12007;BMP180;6062;47.294;12.182;2023-05-14T01:24:30;80098.00;;;6.00
12007;BMP180;6062;47.294;12.182;2023-05-14T01:32:33;80080.00;;;5.90
12007;BMP180;6062;47.294;12.182;2023-05-14T01:35:00;80089.00;;;5.80
12007;BMP180;6062;47.294;12.182;2023-05-14T01:37:28;80087.00;;;5.80
12007;BMP180;6062;47.294;12.182;2023-05-14T01:39:56;80076.00;;;5.80
12007;BMP180;6062;47.294;12.182;2023-05-14T01:42:22;80086.00;;;5.70
12007;BMP180;6062;47.294;12.182;2023-05-14T01:44:48;80083.00;;;5.70
12007;BMP180;6062;47.294;12.182;2023-05-14T01:47:14;80086.00;;;5.60
12007;BMP180;6062;47.294;12.182;2023-05-14T01:49:40;80082.00;;;5.60
12007;BMP180;6062;47.294;12.182;2023-05-14T01:52:06;80094.00;;;5.60
12007;BMP180;6062;47.294;12.182;2023-05-14T01:54:33;80095.00;;;5.60
12007;BMP180;6062;47.294;12.182;2023-05-14T01:56:58;80099.00;;;5.60
12007;BMP180;6062;47.294;12.182;2023-05-14T01:59:24;80087.00;;;5.60
12007;BMP180;6062;47.294;12.182;2023-05-14T02:01:50;80101.00;;;5.60
12007;BMP180;6062;47.294;12.182;2023-05-14T02:04:15;80095.00;;;5.60
12007;BMP180;6062;47.294;12.182;2023-05-14T02:06:41;80086.00;;;5.60
12007;BMP180;6062;47.294;12.182;2023-05-14T02:09:07;80087.00;;;5.60
12007;BMP180;6062;47.294;12.182;2023-05-14T02:11:32;80073.00;;;5.60
12007;BMP180;6062;47.294;12.182;2023-05-14T02:13:58;80074.00;;;5.50
12007;BMP180;6062;47.294;12.182;2023-05-14T02:16:24;80067.00;;;5.50
12007;BMP180;6062;47.294;12.182;2023-05-14T02:18:49;80060.00;;;5.50
12007;BMP180;6062;47.294;12.182;2023-05-14T02:21:15;80054.00;;;5.40
12007;BMP180;6062;47.294;12.182;2023-05-14T02:23:41;80055.00;;;5.40
12007;BMP180;6062;47.294;12.182;2023-05-14T02:26:09;80058.00;;;5.40
12007;BMP180;6062;47.294;12.182;2023-05-14T02:28:35;80054.00;;;5.40
12007;BMP180;6062;47.294;12.182;2023-05-14T02:31:00;80060.00;;;5.40
12007;BMP180;6062;47.294;12.182;2023-05-14T02:33:26;80057.00;;;5.40
12007;BMP180;6062;47.294;12.182;2023-05-14T02:35:52;80065.00;;;5.40
12007;BMP180;6062;47.294;12.182;2023-05-14T02:38:19;80063.00;;;5.30
12007;BMP180;6062;47.294;12.182;2023-05-14T02:40:45;80057.00;;;5.30
12007;BMP180;6062;47.294;12.182;2023-05-14T02:43:10;80055.00;;;5.30
12007;BMP180;6062;47.294;12.182;2023-05-14T02:45:36;80060.00;;;5.30
12007;BMP180;6062;47.294;12.182;2023-05-14T02:48:02;80053.00;;;5.30
12007;BMP180;6062;47.294;12.182;2023-05-14T02:50:27;80042.00;;;5.30
12007;BMP180;6062;47.294;12.182;2023-05-14T02:52:53;80039.00;;;5.30
12007;BMP180;6062;47.294;12.182;2023-05-14T02:55:20;80039.00;;;5.20
12007;BMP180;6062;47.294;12.182;2023-05-14T02:57:45;80030.00;;;5.20
12007;BMP180;6062;47.294;12.182;2023-05-14T03:00:12;80028.00;;;5.20
12007;BMP180;6062;47.294;12.182;2023-05-14T03:02:37;80017.00;;;5.10
12007;BMP180;6062;47.294;12.182;2023-05-14T03:05:03;80027.00;;;5.10
12007;BMP180;6062;47.294;12.182;2023-05-14T03:07:29;80017.00;;;5.10
12007;BMP180;6062;47.294;12.182;2023-05-14T03:09:55;80022.00;;;5.10
12007;BMP180;6062;47.294;12.182;2023-05-14T03:12:21;80019.00;;;5.10
12007;BMP180;6062;47.294;12.182;2023-05-14T03:14:46;80020.00;;;5.10
12007;BMP180;6062;47.294;12.182;2023-05-14T03:17:12;80027.00;;;5.10
12007;BMP180;6062;47.294;12.182;2023-05-14T03:19:38;80029.00;;;5.10
12007;BMP180;6062;47.294;12.182;2023-05-14T03:22:03;80040.00;;;5.10
12007;BMP180;6062;47.294;12.182;2023-05-14T03:24:29;80029.00;;;5.10
12007;BMP180;6062;47.294;12.182;2023-05-14T03:26:55;80028.00;;;5.20
12007;BMP180;6062;47.294;12.182;2023-05-14T03:29:21;80036.00;;;5.20
12007;BMP180;6062;47.294;12.182;2023-05-14T03:31:47;80037.00;;;5.20
12007;BMP180;6062;47.294;12.182;2023-05-14T03:34:14;80043.00;;;5.20
12007;BMP180;6062;47.294;12.182;2023-05-14T03:36:40;80041.00;;;5.20
12007;BMP180;6062;47.294;12.182;2023-05-14T03:39:05;80048.00;;;5.20
12007;BMP180;6062;47.294;12.182;2023-05-14T03:41:32;80041.00;;;5.20
12007;BMP180;6062;47.294;12.182;2023-05-14T03:43:57;80041.00;;;5.20
12007;BMP180;6062;47.294;12.182;2023-05-14T03:46:23;80044.00;;;5.10
12007;BMP180;6062;47.294;12.182;2023-05-14T03:48:49;80050.00;;;5.10
12007;BMP180;6062;47.294;12.182;2023-05-14T03:51:14;80044.00;;;5.10
12007;BMP180;6062;47.294;12.182;2023-05-14T03:53:40;80040.00;;;5.10
12007;BMP180;6062;47.294;12.182;2023-05-14T03:56:06;80041.00;;;5.10
12007;BMP180;6062;47.294;12.182;2023-05-14T03:58:32;80036.00;;;5.10
12007;BMP180;6062;47.294;12.182;2023-05-14T04:00:57;80041.00;;;5.10
12007;BMP180;6062;47.294;12.182;2023-05-14T04:03:24;80028.00;;;5.10
12007;BMP180;6062;47.294;12.182;2023-05-14T04:05:50;80022.00;;;5.20
12007;BMP180;6062;47.294;12.182;2023-05-14T04:08:16;80015.00;;;5.20
12007;BMP180;6062;47.294;12.182;2023-05-14T04:10:42;80018.00;;;5.20
12007;BMP180;6062;47.294;12.182;2023-05-14T04:13:08;80021.00;;;5.30
12007;BMP180;6062;47.294;12.182;2023-05-14T04:15:33;80031.00;;;5.30
12007;BMP180;6062;47.294;12.182;2023-05-14T04:18:00;80030.00;;;5.40
12007;BMP180;6062;47.294;12.182;2023-05-14T04:20:26;80037.00;;;5.50
12007;BMP180;6062;47.294;12.182;2023-05-14T04:22:53;80039.00;;;5.60
12007;BMP180;6062;47.294;12.182;2023-05-14T04:25:18;80040.00;;;5.70
12007;BMP180;6062;47.294;12.182;2023-05-14T04:27:44;80040.00;;;5.80
12007;BMP180;6062;47.294;12.182;2023-05-14T04:30:10;80030.00;;;5.80
12007;BMP180;6062;47.294;12.182;2023-05-14T04:32:36;80039.00;;;5.90
12007;BMP180;6062;47.294;12.182;2023-05-14T04:35:04;80037.00;;;5.90
12007;BMP180;6062;47.294;12.182;2023-05-14T04:37:30;80036.00;;;6.00
12007;BMP180;6062;47.294;12.182;2023-05-14T04:39:56;80040.00;;;6.00
12007;BMP180;6062;47.294;12.182;2023-05-14T04:42:21;80041.00;;;6.10
12007;BMP180;6062;47.294;12.182;2023-05-14T04:44:47;80042.00;;;6.20
12007;BMP180;6062;47.294;12.182;2023-05-14T04:47:13;80029.00;;;6.30
12007;BMP180;6062;47.294;12.182;2023-05-14T04:49:39;80026.00;;;6.30
12007;BMP180;6062;47.294;12.182;2023-05-14T04:52:05;80033.00;;;6.40
12007;BMP180;6062;47.294;12.182;2023-05-14T04:54:31;80037.00;;;6.40
12007;BMP180;6062;47.294;12.182;2023-05-14T04:56:57;80034.00;;;6.50
12007;BMP180;6062;47.294;12.182;2023-05-14T04:59:30;80033.00;;;6.60
12007;BMP180;6062;47.294;12.182;2023-05-14T05:01:56;80028.00;;;6.60
12007;BMP180;6062;47.294;12.182;2023-05-14T05:04:23;80036.00;;;6.70
12007;BMP180;6062;47.294;12.182;2023-05-14T05:06:49;80030.00;;;6.80
12007;BMP180;6062;47.294;12.182;2023-05-14T05:09:16;80040.00;;;6.90
12007;BMP180;6062;47.294;12.182;2023-05-14T05:11:42;80033.00;;;7.00
12007;BMP180;6062;47.294;12.182;2023-05-14T05:14:08;80034.00;;;7.10
12007;BMP180;6062;47.294;12.182;2023-05-14T05:16:33;80039.00;;;7.00
12007;BMP180;6062;47.294;12.182;2023-05-14T05:18:59;80036.00;;;7.00
12007;BMP180;6062;47.294;12.182;2023-05-14T05:21:25;80044.00;;;7.00
12007;BMP180;6062;47.294;12.182;2023-05-14T05:23:51;80036.00;;;7.00
12007;BMP180;6062;47.294;12.182;2023-05-14T05:26:16;80039.00;;;7.00
12007;BMP180;6062;47.294;12.182;2023-05-14T05:28:42;80045.00;;;7.10
12007;BMP180;6062;47.294;12.182;2023-05-14T05:31:08;80034.00;;;7.30
12007;BMP180;6062;47.294;12.182;2023-05-14T05:33:34;80024.00;;;7.40
12007;BMP180;6062;47.294;12.182;2023-05-14T05:36:00;80035.00;;;7.60
12007;BMP180;6062;47.294;12.182;2023-05-14T05:38:26;80031.00;;;7.70
12007;BMP180;6062;47.294;12.182;2023-05-14T05:40:51;80031.00;;;7.80
12007;BMP180;6062;47.294;12.182;2023-05-14T05:43:17;80025.00;;;7.80
12007;BMP180;6062;47.294;12.182;2023-05-14T05:45:43;80016.00;;;7.90
12007;BMP180;6062;47.294;12.182;2023-05-14T05:48:10;80018.00;;;8.00
12007;BMP180;6062;47.294;12.182;2023-05-14T05:50:36;80011.00;;;8.20
12007;BMP180;6062;47.294;12.182;2023-05-14T05:53:02;80007.00;;;8.30
12007;BMP180;6062;47.294;12.182;2023-05-14T05:55:28;80005.00;;;8.40
12007;BMP180;6062;47.294;12.182;2023-05-14T05:57:54;80008.00;;;8.60
12007;BMP180;6062;47.294;12.182;2023-05-14T06:00:20;80005.00;;;8.70
12007;BMP180;6062;47.294;12.182;2023-05-14T06:02:46;80011.00;;;8.90
12007;BMP180;6062;47.294;12.182;2023-05-14T06:05:12;80010.00;;;9.10
12007;BMP180;6062;47.294;12.182;2023-05-14T06:07:38;80008.00;;;9.10
12007;BMP180;6062;47.294;12.182;2023-05-14T06:10:04;80010.00;;;9.00
12007;BMP180;6062;47.294;12.182;2023-05-14T06:12:31;80010.00;;;9.00
12007;BMP180;6062;47.294;12.182;2023-05-14T06:14:56;80005.00;;;9.00
12007;BMP180;6062;47.294;12.182;2023-05-14T06:17:25;80014.00;;;9.10
12007;BMP180;6062;47.294;12.182;2023-05-14T06:19:51;80014.00;;;9.20
12007;BMP180;6062;47.294;12.182;2023-05-14T06:22:17;80014.00;;;9.40
12007;BMP180;6062;47.294;12.182;2023-05-14T06:24:43;80021.00;;;9.50
12007;BMP180;6062;47.294;12.182;2023-05-14T06:27:10;80020.00;;;9.60
12007;BMP180;6062;47.294;12.182;2023-05-14T06:29:36;80020.00;;;9.70
12007;BMP180;6062;47.294;12.182;2023-05-14T06:32:03;80012.00;;;9.90
12007;BMP180;6062;47.294;12.182;2023-05-14T06:34:30;80015.00;;;10.00
12007;BMP180;6062;47.294;12.182;2023-05-14T06:36:56;80012.00;;;10.10
12007;BMP180;6062;47.294;12.182;2023-05-14T06:39:22;80017.00;;;10.20
12007;BMP180;6062;47.294;12.182;2023-05-14T06:41:49;80023.00;;;10.20
12007;BMP180;6062;47.294;12.182;2023-05-14T06:44:17;80016.00;;;10.20
12007;BMP180;6062;47.294;12.182;2023-05-14T06:46:42;80019.00;;;10.20
12007;BMP180;6062;47.294;12.182;2023-05-14T06:49:08;80007.00;;;10.30
12007;BMP180;6062;47.294;12.182;2023-05-14T06:51:34;80005.00;;;10.40
12007;BMP180;6062;47.294;12.182;2023-05-14T06:53:59;80011.00;;;10.60
12007;BMP180;6062;47.294;12.182;2023-05-14T06:56:25;80018.00;;;10.70
12007;BMP180;6062;47.294;12.182;2023-05-14T06:58:51;80018.00;;;10.90
12007;BMP180;6062;47.294;12.182;2023-05-14T07:01:16;80011.00;;;11.00
12007;BMP180;6062;47.294;12.182;2023-05-14T07:03:42;80022.00;;;11.00
12007;BMP180;6062;47.294;12.182;2023-05-14T07:06:08;80011.00;;;10.80
12007;BMP180;6062;47.294;12.182;2023-05-14T07:08:33;80009.00;;;10.70
12007;BMP180;6062;47.294;12.182;2023-05-14T07:10:59;80006.00;;;10.60
12007;BMP180;6062;47.294;12.182;2023-05-14T07:13:25;80009.00;;;10.50
12007;BMP180;6062;47.294;12.182;2023-05-14T07:15:53;80011.00;;;10.60
12007;BMP180;6062;47.294;12.182;2023-05-14T07:18:21;80017.00;;;10.70
12007;BMP180;6062;47.294;12.182;2023-05-14T07:20:47;80018.00;;;10.90
12007;BMP180;6062;47.294;12.182;2023-05-14T07:23:13;80017.00;;;11.00
12007;BMP180;6062;47.294;12.182;2023-05-14T07:25:39;80016.00;;;11.00
12007;BMP180;6062;47.294;12.182;2023-05-14T07:28:04;80023.00;;;11.00
12007;BMP180;6062;47.294;12.182;2023-05-14T07:30:30;80018.00;;;10.80
12007;BMP180;6062;47.294;12.182;2023-05-14T07:32:56;80004.00;;;10.80
12007;BMP180;6062;47.294;12.182;2023-05-14T07:35:23;80001.00;;;10.70
12007;BMP180;6062;47.294;12.182;2023-05-14T07:37:48;80001.00;;;10.70
12007;BMP180;6062;47.294;12.182;2023-05-14T07:40:14;79995.00;;;10.60
12007;BMP180;6062;47.294;12.182;2023-05-14T07:42:40;80003.00;;;10.50
12007;BMP180;6062;47.294;12.182;2023-05-14T07:45:07;80006.00;;;10.30
12007;BMP180;6062;47.294;12.182;2023-05-14T07:47:34;80007.00;;;10.10
12007;BMP180;6062;47.294;12.182;2023-05-14T07:49:59;80006.00;;;9.90
12007;BMP180;6062;47.294;12.182;2023-05-14T07:52:25;80000.00;;;9.70
12007;BMP180;6062;47.294;12.182;2023-05-14T07:54:51;80006.00;;;9.60
12007;BMP180;6062;47.294;12.182;2023-05-14T07:57:18;79999.00;;;9.50
12007;BMP180;6062;47.294;12.182;2023-05-14T07:59:44;80006.00;;;9.40
12007;BMP180;6062;47.294;12.182;2023-05-14T08:02:10;79998.00;;;9.40
12007;BMP180;6062;47.294;12.182;2023-05-14T08:04:37;79998.00;;;9.30
12007;BMP180;6062;47.294;12.182;2023-05-14T08:07:04;79995.00;;;9.20
12007;BMP180;6062;47.294;12.182;2023-05-14T08:09:30;79992.00;;;9.20
12007;BMP180;6062;47.294;12.182;2023-05-14T08:11:55;79985.00;;;9.20
12007;BMP180;6062;47.294;12.182;2023-05-14T08:14:22;79985.00;;;9.30
12007;BMP180;6062;47.294;12.182;2023-05-14T08:16:47;79981.00;;;9.40
12007;BMP180;6062;47.294;12.182;2023-05-14T08:19:14;79977.00;;;9.70
12007;BMP180;6062;47.294;12.182;2023-05-14T08:21:40;79979.00;;;9.90
12007;BMP180;6062;47.294;12.182;2023-05-14T08:24:06;79979.00;;;10.10
12007;BMP180;6062;47.294;12.182;2023-05-14T08:26:32;79984.00;;;10.10
12007;BMP180;6062;47.294;12.182;2023-05-14T08:28:57;79982.00;;;10.10
12007;BMP180;6062;47.294;12.182;2023-05-14T08:31:23;79989.00;;;10.10
12007;BMP180;6062;47.294;12.182;2023-05-14T08:33:49;79975.00;;;10.00
12007;BMP180;6062;47.294;12.182;2023-05-14T08:36:15;79973.00;;;10.00
12007;BMP180;6062;47.294;12.182;2023-05-14T08:38:40;79977.00;;;9.90
12007;BMP180;6062;47.294;12.182;2023-05-14T08:41:08;79974.00;;;9.80
12007;BMP180;6062;47.294;12.182;2023-05-14T08:43:50;79984.00;;;9.80
12007;BMP180;6062;47.294;12.182;2023-05-14T08:46:23;79969.00;;;9.70
12007;BMP180;6062;47.294;12.182;2023-05-14T08:51:47;79974.00;;;9.70
12007;BMP180;6062;47.294;12.182;2023-05-14T08:54:16;79963.00;;;9.80
12007;BMP180;6062;47.294;12.182;2023-05-14T08:56:44;79971.00;;;9.80
12007;BMP180;6062;47.294;12.182;2023-05-14T08:59:11;79975.00;;;9.70
12007;BMP180;6062;47.294;12.182;2023-05-14T09:01:40;79963.00;;;9.70
12007;BMP180;6062;47.294;12.182;2023-05-14T09:04:09;79978.00;;;9.80
12007;BMP180;6062;47.294;12.182;2023-05-14T09:06:35;79968.00;;;10.00
12007;BMP180;6062;47.294;12.182;2023-05-14T09:09:04;79976.00;;;10.20
12007;BMP180;6062;47.294;12.182;2023-05-14T09:11:31;79978.00;;;10.50
12007;BMP180;6062;47.294;12.182;2023-05-14T09:13:56;79975.00;;;10.70
12007;BMP180;6062;47.294;12.182;2023-05-14T09:16:24;79974.00;;;10.90
12007;BMP180;6062;47.294;12.182;2023-05-14T09:18:50;79973.00;;;11.10
12007;BMP180;6062;47.294;12.182;2023-05-14T09:21:17;79968.00;;;11.20
12007;BMP180;6062;47.294;12.182;2023-05-14T09:23:44;79962.00;;;11.40
12007;BMP180;6062;47.294;12.182;2023-05-14T09:26:16;79971.00;;;11.60
12007;BMP180;6062;47.294;12.182;2023-05-14T09:28:43;79968.00;;;11.70
12007;BMP180;6062;47.294;12.182;2023-05-14T09:31:09;79971.00;;;11.70
12007;BMP180;6062;47.294;12.182;2023-05-14T09:33:35;79971.00;;;11.80
12007;BMP180;6062;47.294;12.182;2023-05-14T09:36:01;79970.00;;;11.90
12007;BMP180;6062;47.294;12.182;2023-05-14T09:38:31;79964.00;;;11.80
12007;BMP180;6062;47.294;12.182;2023-05-14T09:40:59;79971.00;;;11.80
12007;BMP180;6062;47.294;12.182;2023-05-14T09:43:25;79977.00;;;11.90
12007;BMP180;6062;47.294;12.182;2023-05-14T09:45:52;79975.00;;;11.90
12007;BMP180;6062;47.294;12.182;2023-05-14T09:48:18;79971.00;;;11.90
12007;BMP180;6062;47.294;12.182;2023-05-14T09:50:45;79970.00;;;11.70
12007;BMP180;6062;47.294;12.182;2023-05-14T09:53:12;79963.00;;;11.70
12007;BMP180;6062;47.294;12.182;2023-05-14T09:55:38;79960.00;;;11.60
12007;BMP180;6062;47.294;12.182;2023-05-14T09:58:04;79957.00;;;11.50
12007;BMP180;6062;47.294;12.182;2023-05-14T10:00:32;79952.00;;;11.40
12007;BMP180;6062;47.294;12.182;2023-05-14T10:03:12;79967.00;;;11.50
12007;BMP180;6062;47.294;12.182;2023-05-14T10:05:40;79963.00;;;11.50
12007;BMP180;6062;47.294;12.182;2023-05-14T10:08:18;79958.00;;;11.50
12007;BMP180;6062;47.294;12.182;2023-05-14T10:10:44;79958.00;;;11.40
12007;BMP180;6062;47.294;12.182;2023-05-14T10:13:14;79963.00;;;11.20
12007;BMP180;6062;47.294;12.182;2023-05-14T10:15:51;79951.00;;;11.10
12007;BMP180;6062;47.294;12.182;2023-05-14T10:18:23;79958.00;;;10.90
12007;BMP180;6062;47.294;12.182;2023-05-14T10:21:05;79945.00;;;10.70
12007;BMP180;6062;47.294;12.182;2023-05-14T10:23:32;79949.00;;;10.60
12007;BMP180;6062;47.294;12.182;2023-05-14T10:26:00;79950.00;;;10.50
12007;BMP180;6062;47.294;12.182;2023-05-14T10:28:26;79943.00;;;10.40
12007;BMP180;6062;47.294;12.182;2023-05-14T10:30:53;79942.00;;;10.30
12007;BMP180;6062;47.294;12.182;2023-05-14T10:33:19;79947.00;;;10.30
12007;BMP180;6062;47.294;12.182;2023-05-14T10:36:01;79946.00;;;10.20
12007;BMP180;6062;47.294;12.182;2023-05-14T10:38:34;79948.00;;;10.10
12007;BMP180;6062;47.294;12.182;2023-05-14T10:41:06;79947.00;;;10.00
12007;BMP180;6062;47.294;12.182;2023-05-14T10:43:37;79938.00;;;9.80
12007;BMP180;6062;47.294;12.182;2023-05-14T10:46:04;79948.00;;;9.60
12007;BMP180;6062;47.294;12.182;2023-05-14T10:48:31;79943.00;;;9.40
12007;BMP180;6062;47.294;12.182;2023-05-14T10:50:57;79946.00;;;9.30
12007;BMP180;6062;47.294;12.182;2023-05-14T10:53:41;79930.00;;;9.20
12007;BMP180;6062;47.294;12.182;2023-05-14T10:56:13;79930.00;;;9.10
12007;BMP180;6062;47.294;12.182;2023-05-14T10:58:42;79925.00;;;8.90
12007;BMP180;6062;47.294;12.182;2023-05-14T11:01:10;79926.00;;;8.80
12007;BMP180;6062;47.294;12.182;2023-05-14T11:03:45;79927.00;;;8.70
12007;BMP180;6062;47.294;12.182;2023-05-14T11:06:13;79921.00;;;8.50
12007;BMP180;6062;47.294;12.182;2023-05-14T11:08:39;79920.00;;;8.50
12007;BMP180;6062;47.294;12.182;2023-05-14T11:11:09;79911.00;;;8.50
12007;BMP180;6062;47.294;12.182;2023-05-14T11:13:35;79916.00;;;8.70
12007;BMP180;6062;47.294;12.182;2023-05-14T11:16:02;79911.00;;;8.80
12007;BMP180;6062;47.294;12.182;2023-05-14T11:18:31;79913.00;;;8.70
12007;BMP180;6062;47.294;12.182;2023-05-14T11:21:01;79907.00;;;8.70
12007;BMP180;6062;47.294;12.182;2023-05-14T11:23:27;79907.00;;;8.70
12007;BMP180;6062;47.294;12.182;2023-05-14T11:25:55;79904.00;;;8.70
12007;BMP180;6062;47.294;12.182;2023-05-14T11:28:23;79905.00;;;8.60
12007;BMP180;6062;47.294;12.182;2023-05-14T11:30:49;79897.00;;;8.60
12007;BMP180;6062;47.294;12.182;2023-05-14T11:33:17;79904.00;;;8.70
12007;BMP180;6062;47.294;12.182;2023-05-14T11:35:43;79899.00;;;8.80
12007;BMP180;6062;47.294;12.182;2023-05-14T11:38:20;79896.00;;;9.00
12007;BMP180;6062;47.294;12.182;2023-05-14T11:40:56;79901.00;;;9.10
12007;BMP180;6062;47.294;12.182;2023-05-14T11:43:23;79890.00;;;9.10
12007;BMP180;6062;47.294;12.182;2023-05-14T11:45:51;79895.00;;;9.10
12007;BMP180;6062;47.294;12.182;2023-05-14T11:48:17;79900.00;;;9.10
12007;BMP180;6062;47.294;12.182;2023-05-14T11:50:51;79899.00;;;9.00
12007;BMP180;6062;47.294;12.182;2023-05-14T11:53:26;79896.00;;;9.00
12007;BMP180;6062;47.294;12.182;2023-05-14T11:55:53;79900.00;;;8.90
12007;BMP180;6062;47.294;12.182;2023-05-14T11:58:20;79893.00;;;8.80
12007;BMP180;6062;47.294;12.182;2023-05-14T12:00:50;79897.00;;;8.70
12007;BMP180;6062;47.294;12.182;2023-05-14T12:03:18;79893.00;;;8.60
12007;BMP180;6062;47.294;12.182;2023-05-14T12:06:09;79891.00;;;8.70
12007;BMP180;6062;47.294;12.182;2023-05-14T12:08:36;79895.00;;;8.80
12007;BMP180;6062;47.294;12.182;2023-05-14T12:11:02;79886.00;;;9.00
12007;BMP180;6062;47.294;12.182;2023-05-14T12:13:32;79884.00;;;9.20
12007;BMP180;6062;47.294;12.182;2023-05-14T12:16:00;79874.00;;;9.30
12007;BMP180;6062;47.294;12.182;2023-05-14T12:18:29;79870.00;;;9.20
12007;BMP180;6062;47.294;12.182;2023-05-14T12:21:01;79867.00;;;9.20
12007;BMP180;6062;47.294;12.182;2023-05-14T12:23:29;79861.00;;;9.10
12007;BMP180;6062;47.294;12.182;2023-05-14T12:26:04;79860.00;;;9.00
12007;BMP180;6062;47.294;12.182;2023-05-14T12:28:31;79858.00;;;9.00
12007;BMP180;6062;47.294;12.182;2023-05-14T12:30:58;79862.00;;;9.00
12007;BMP180;6062;47.294;12.182;2023-05-14T12:33:25;79858.00;;;9.10
12007;BMP180;6062;47.294;12.182;2023-05-14T12:35:54;79863.00;;;9.00
12007;BMP180;6062;47.294;12.182;2023-05-14T12:38:27;79866.00;;;9.00
12007;BMP180;6062;47.294;12.182;2023-05-14T12:40:52;79856.00;;;9.20
12007;BMP180;6062;47.294;12.182;2023-05-14T12:43:19;79855.00;;;9.40
12007;BMP180;6062;47.294;12.182;2023-05-14T12:45:44;79858.00;;;9.60
12007;BMP180;6062;47.294;12.182;2023-05-14T12:48:10;79854.00;;;9.80
12007;BMP180;6062;47.294;12.182;2023-05-14T12:50:37;79860.00;;;10.20
12007;BMP180;6062;47.294;12.182;2023-05-14T12:53:03;79858.00;;;10.40
12007;BMP180;6062;47.294;12.182;2023-05-14T12:55:30;79845.00;;;10.60
12007;BMP180;6062;47.294;12.182;2023-05-14T12:57:56;79839.00;;;10.80
12007;BMP180;6062;47.294;12.182;2023-05-14T13:00:22;79847.00;;;11.00
12007;BMP180;6062;47.294;12.182;2023-05-14T13:02:48;79851.00;;;11.10
12007;BMP180;6062;47.294;12.182;2023-05-14T13:05:13;79856.00;;;11.30
12007;BMP180;6062;47.294;12.182;2023-05-14T13:07:39;79845.00;;;11.40
12007;BMP180;6062;47.294;12.182;2023-05-14T13:10:06;79849.00;;;11.50
12007;BMP180;6062;47.294;12.182;2023-05-14T13:12:32;79848.00;;;11.60
12007;BMP180;6062;47.294;12.182;2023-05-14T13:14:57;79837.00;;;11.60
12007;BMP180;6062;47.294;12.182;2023-05-14T13:17:23;79837.00;;;11.70
12007;BMP180;6062;47.294;12.182;2023-05-14T13:19:49;79836.00;;;11.70
12007;BMP180;6062;47.294;12.182;2023-05-14T13:22:15;79822.00;;;11.80
12007;BMP180;6062;47.294;12.182;2023-05-14T13:24:43;79846.00;;;11.80
12007;BMP180;6062;47.294;12.182;2023-05-14T13:27:08;79832.00;;;11.80
12007;BMP180;6062;47.294;12.182;2023-05-14T13:29:34;79826.00;;;11.80
12007;BMP180;6062;47.294;12.182;2023-05-14T13:32:00;79832.00;;;11.70
12007;BMP180;6062;47.294;12.182;2023-05-14T13:34:26;79826.00;;;11.70
12007;BMP180;6062;47.294;12.182;2023-05-14T13:36:51;79826.00;;;11.70
12007;BMP180;6062;47.294;12.182;2023-05-14T13:39:17;79835.00;;;11.60
12007;BMP180;6062;47.294;12.182;2023-05-14T13:41:47;79832.00;;;11.60
12007;BMP180;6062;47.294;12.182;2023-05-14T13:44:15;79821.00;;;11.60
12007;BMP180;6062;47.294;12.182;2023-05-14T13:46:41;79823.00;;;11.50
12007;BMP180;6062;47.294;12.182;2023-05-14T13:49:06;79818.00;;;11.50
12007;BMP180;6062;47.294;12.182;2023-05-14T13:51:32;79822.00;;;11.40
12007;BMP180;6062;47.294;12.182;2023-05-14T13:53:58;79834.00;;;11.40
12007;BMP180;6062;47.294;12.182;2023-05-14T13:56:23;79835.00;;;11.30
12007;BMP180;6062;47.294;12.182;2023-05-14T13:58:49;79836.00;;;11.10
12007;BMP180;6062;47.294;12.182;2023-05-14T14:01:15;79832.00;;;10.80
12007;BMP180;6062;47.294;12.182;2023-05-14T14:03:40;79838.00;;;10.40
12007;BMP180;6062;47.294;12.182;2023-05-14T14:06:06;79834.00;;;9.90
12007;BMP180;6062;47.294;12.182;2023-05-14T14:08:32;79832.00;;;9.60
12007;BMP180;6062;47.294;12.182;2023-05-14T14:10:57;79834.00;;;9.20
12007;BMP180;6062;47.294;12.182;2023-05-14T14:13:23;79835.00;;;8.90
12007;BMP180;6062;47.294;12.182;2023-05-14T14:15:49;79839.00;;;8.50
12007;BMP180;6062;47.294;12.182;2023-05-14T14:18:14;79835.00;;;8.30
12007;BMP180;6062;47.294;12.182;2023-05-14T14:20:40;79830.00;;;8.10
12007;BMP180;6062;47.294;12.182;2023-05-14T14:23:06;79826.00;;;8.10
12007;BMP180;6062;47.294;12.182;2023-05-14T14:25:32;79827.00;;;8.10
12007;BMP180;6062;47.294;12.182;2023-05-14T14:27:57;79821.00;;;8.10
12007;BMP180;6062;47.294;12.182;2023-05-14T14:30:23;79798.00;;;8.20